Pagrindinis puslapis
METAR-TAF:

METAR-TAF

Oro uostai :

Port Heiden, Aliaska, Jungtinės Amerikos Valstijos

platuma: 56-57N, ilguma: 158-38W, Aukštis: 29 m

Dabartinis oras

Ataskaita buvo paskelbta 33 minutes, ne 02:56 UTC
Vėjas 7 kt iš Šiaurės Vakarų
Temperatūra 11°C
Drėgmė 71%
Slėgis 1007 hPa
Matomumas: 16.1 km
Apsiniaukę ne aukštis 4600 ft
lietus

METAR: PAPH 190256Z AUTO 31007KT 10SM -RA OVC046 11/06 A2974 RMK AO2 RAB13 SLP072 P0000 60000 T01060061 58009

Laikas: 19:29 (03:29 UTC)


TAF: trūkstamas

Orai ataskaitas ir orų prognozės (METAR, TAF).

turimą stotys yra geltonos ir raudonos taškus žemėlapyje.

Perkelti pele per norėdami pamatyti stoties vardą.

Tada spustelėkite, norėdami matyti oro stebėjimo ir prognozės.

Norėdami pakeisti žemėlapį: spustelėkite ant žalios mygtukų su juodo kryžiaus žemyn,; žalią mygtuką su brūkšneliu, jei norite nutolinti; arba žalių rodyklių gretimoms žemėlapius.


METAR-TAF: